sensor_id;sensor_type;location;lat;lon;timestamp;temperature;humidity
12889;DHT22;56848;49.896;11.424;2023-04-03T04:00:28;0.70;99.90
12889;DHT22;56848;49.896;11.424;2023-04-03T04:02:54;0.80;99.90
12889;DHT22;56848;49.896;11.424;2023-04-03T04:05:20;0.80;99.90
12889;DHT22;56848;49.896;11.424;2023-04-03T04:07:45;0.70;99.90
12889;DHT22;56848;49.896;11.424;2023-04-03T04:10:11;0.70;99.90
12889;DHT22;56848;49.896;11.424;2023-04-03T04:12:36;0.70;99.90
12889;DHT22;56848;49.896;11.424;2023-04-03T04:15:03;0.70;99.90
12889;DHT22;56848;49.896;11.424;2023-04-03T04:17:28;0.70;99.90
12889;DHT22;56848;49.896;11.424;2023-04-03T04:19:54;0.60;99.90
12889;DHT22;56848;49.896;11.424;2023-04-03T04:22:19;0.60;99.90
12889;DHT22;56848;49.896;11.424;2023-04-03T04:24:45;0.60;99.90
12889;DHT22;56848;49.896;11.424;2023-04-03T04:27:11;0.60;99.90
12889;DHT22;56848;49.896;11.424;2023-04-03T04:29:36;0.60;99.90
12889;DHT22;56848;49.896;11.424;2023-04-03T04:32:03;0.50;99.90
12889;DHT22;56848;49.896;11.424;2023-04-03T04:34:29;0.50;99.90
12889;DHT22;56848;49.896;11.424;2023-04-03T04:36:55;0.50;99.90
12889;DHT22;56848;49.896;11.424;2023-04-03T04:39:20;0.50;99.90
12889;DHT22;56848;49.896;11.424;2023-04-03T04:41:46;0.40;99.90
12889;DHT22;56848;49.896;11.424;2023-04-03T04:44:11;0.40;99.90
12889;DHT22;56848;49.896;11.424;2023-04-03T04:46:37;0.40;99.90
12889;DHT22;56848;49.896;11.424;2023-04-03T04:49:02;0.40;99.90
12889;DHT22;56848;49.896;11.424;2023-04-03T04:51:28;0.40;99.90
12889;DHT22;56848;49.896;11.424;2023-04-03T04:53:54;0.40;99.90
12889;DHT22;56848;49.896;11.424;2023-04-03T04:56:19;0.40;99.90
12889;DHT22;56848;49.896;11.424;2023-04-03T04:58:46;0.40;99.90
12889;DHT22;56848;49.896;11.424;2023-04-03T05:01:11;0.40;99.90
12889;DHT22;56848;49.896;11.424;2023-04-03T05:03:37;0.40;99.90
12889;DHT22;56848;49.896;11.424;2023-04-03T05:06:03;0.40;99.90
12889;DHT22;56848;49.896;11.424;2023-04-03T05:08:29;0.30;99.90
12889;DHT22;56848;49.896;11.424;2023-04-03T05:10:55;0.30;99.90
12889;DHT22;56848;49.896;11.424;2023-04-03T05:13:20;0.30;99.90
12889;DHT22;56848;49.896;11.424;2023-04-03T05:15:47;0.30;99.90
12889;DHT22;56848;49.896;11.424;2023-04-03T05:18:13;0.30;99.90
12889;DHT22;56848;49.896;11.424;2023-04-03T05:20:38;0.30;99.90
12889;DHT22;56848;49.896;11.424;2023-04-03T05:23:04;0.30;99.90
12889;DHT22;56848;49.896;11.424;2023-04-03T05:25:30;0.20;99.90
12889;DHT22;56848;49.896;11.424;2023-04-03T05:27:56;0.20;99.90
12889;DHT22;56848;49.896;11.424;2023-04-03T05:30:21;0.20;99.90
12889;DHT22;56848;49.896;11.424;2023-04-03T05:32:47;0.20;99.90
12889;DHT22;56848;49.896;11.424;2023-04-03T05:35:13;0.20;99.90
12889;DHT22;56848;49.896;11.424;2023-04-03T05:37:38;0.20;99.90
12889;DHT22;56848;49.896;11.424;2023-04-03T05:40:05;0.20;99.90
12889;DHT22;56848;49.896;11.424;2023-04-03T05:42:31;0.20;99.90
12889;DHT22;56848;49.896;11.424;2023-04-03T05:44:57;0.20;99.90
12889;DHT22;56848;49.896;11.424;2023-04-03T05:47:23;0.30;99.90
12889;DHT22;56848;49.896;11.424;2023-04-03T05:49:48;0.40;99.90
12889;DHT22;56848;49.896;11.424;2023-04-03T05:52:29;0.30;99.90
12889;DHT22;56848;49.896;11.424;2023-04-03T05:54:56;0.30;99.90
12889;DHT22;56848;49.896;11.424;2023-04-03T05:57:21;0.20;99.90
12889;DHT22;56848;49.896;11.424;2023-04-03T05:59:47;0.30;99.90
12889;DHT22;56848;49.896;11.424;2023-04-03T06:02:18;0.30;99.90
12889;DHT22;56848;49.896;11.424;2023-04-03T06:04:45;0.30;99.90
12889;DHT22;56848;49.896;11.424;2023-04-03T06:07:14;0.40;99.90
12889;DHT22;56848;49.896;11.424;2023-04-03T06:09:41;0.30;99.90
12889;DHT22;56848;49.896;11.424;2023-04-03T06:12:07;0.40;99.90
12889;DHT22;56848;49.896;11.424;2023-04-03T06:14:33;0.40;99.90
12889;DHT22;56848;49.896;11.424;2023-04-03T06:16:59;0.30;99.90
12889;DHT22;56848;49.896;11.424;2023-04-03T06:19:25;0.30;99.90
12889;DHT22;56848;49.896;11.424;2023-04-03T06:21:51;0.40;99.90
12889;DHT22;56848;49.896;11.424;2023-04-03T06:24:18;0.30;99.90
12889;DHT22;56848;49.896;11.424;2023-04-03T06:26:43;0.30;99.90
12889;DHT22;56848;49.896;11.424;2023-04-03T06:29:09;0.30;99.90
12889;DHT22;56848;49.896;11.424;2023-04-03T06:31:35;0.40;99.90
12889;DHT22;56848;49.896;11.424;2023-04-03T06:34:02;0.40;99.90
12889;DHT22;56848;49.896;11.424;2023-04-03T06:36:29;0.50;99.90
12889;DHT22;56848;49.896;11.424;2023-04-03T06:38:55;0.50;99.90
12889;DHT22;56848;49.896;11.424;2023-04-03T06:41:21;0.40;99.90
12889;DHT22;56848;49.896;11.424;2023-04-03T06:43:47;0.30;99.90
12889;DHT22;56848;49.896;11.424;2023-04-03T06:46:21;0.40;99.90
12889;DHT22;56848;49.896;11.424;2023-04-03T06:48:47;0.30;99.90
12889;DHT22;56848;49.896;11.424;2023-04-03T06:51:26;0.30;99.90
12889;DHT22;56848;49.896;11.424;2023-04-03T06:53:53;0.40;99.90
12889;DHT22;56848;49.896;11.424;2023-04-03T06:56:19;0.50;99.90
12889;DHT22;56848;49.896;11.424;2023-04-03T06:58:46;0.50;99.90
12889;DHT22;56848;49.896;11.424;2023-04-03T07:01:13;0.80;99.90
12889;DHT22;56848;49.896;11.424;2023-04-03T07:03:39;0.80;99.90
12889;DHT22;56848;49.896;11.424;2023-04-03T07:06:06;0.70;99.90
12889;DHT22;56848;49.896;11.424;2023-04-03T07:08:33;0.60;99.90
12889;DHT22;56848;49.896;11.424;2023-04-03T07:10:59;0.70;99.90
12889;DHT22;56848;49.896;11.424;2023-04-03T07:13:24;0.60;99.90
12889;DHT22;56848;49.896;11.424;2023-04-03T07:15:50;0.80;99.90
12889;DHT22;56848;49.896;11.424;2023-04-03T07:18:16;1.00;99.90
12889;DHT22;56848;49.896;11.424;2023-04-03T07:20:45;1.20;99.90
12889;DHT22;56848;49.896;11.424;2023-04-03T07:23:11;1.40;99.90
12889;DHT22;56848;49.896;11.424;2023-04-03T07:25:37;1.60;99.90
12889;DHT22;56848;49.896;11.424;2023-04-03T07:28:04;1.30;99.90
12889;DHT22;56848;49.896;11.424;2023-04-03T07:30:29;1.50;99.90
12889;DHT22;56848;49.896;11.424;2023-04-03T07:32:55;1.10;99.90
12889;DHT22;56848;49.896;11.424;2023-04-03T07:35:21;1.00;99.90
12889;DHT22;56848;49.896;11.424;2023-04-03T07:37:47;1.30;99.90
12889;DHT22;56848;49.896;11.424;2023-04-03T07:40:13;1.00;99.90
12889;DHT22;56848;49.896;11.424;2023-04-03T07:42:38;1.20;99.90
12889;DHT22;56848;49.896;11.424;2023-04-03T07:45:05;1.30;99.90
12889;DHT22;56848;49.896;11.424;2023-04-03T07:47:31;1.50;99.90
12889;DHT22;56848;49.896;11.424;2023-04-03T07:49:57;1.30;99.90
12889;DHT22;56848;49.896;11.424;2023-04-03T07:52:23;1.10;99.90
12889;DHT22;56848;49.896;11.424;2023-04-03T07:54:49;0.80;99.90
12889;DHT22;56848;49.896;11.424;2023-04-03T07:57:14;0.80;99.90
12889;DHT22;56848;49.896;11.424;2023-04-03T07:59:40;1.10;99.90
12889;DHT22;56848;49.896;11.424;2023-04-03T08:02:09;1.40;99.90
12889;DHT22;56848;49.896;11.424;2023-04-03T08:04:35;1.20;99.90
12889;DHT22;56848;49.896;11.424;2023-04-03T08:07:01;1.00;99.90
12889;DHT22;56848;49.896;11.424;2023-04-03T08:09:27;1.00;99.90
12889;DHT22;56848;49.896;11.424;2023-04-03T08:11:52;1.40;99.90
12889;DHT22;56848;49.896;11.424;2023-04-03T08:14:19;1.70;99.90
12889;DHT22;56848;49.896;11.424;2023-04-03T08:16:47;1.80;99.90
12889;DHT22;56848;49.896;11.424;2023-04-03T08:19:13;2.10;99.90
12889;DHT22;56848;49.896;11.424;2023-04-03T08:21:40;2.50;99.90
12889;DHT22;56848;49.896;11.424;2023-04-03T08:24:07;2.40;99.90
12889;DHT22;56848;49.896;11.424;2023-04-03T08:26:33;2.70;99.90
12889;DHT22;56848;49.896;11.424;2023-04-03T08:28:59;1.40;99.90
12889;DHT22;56848;49.896;11.424;2023-04-03T08:31:24;1.10;99.90
12889;DHT22;56848;49.896;11.424;2023-04-03T08:33:50;1.00;99.90
12889;DHT22;56848;49.896;11.424;2023-04-03T08:36:21;1.40;99.90
12889;DHT22;56848;49.896;11.424;2023-04-03T08:38:48;1.30;99.90
12889;DHT22;56848;49.896;11.424;2023-04-03T08:41:31;1.10;99.90
12889;DHT22;56848;49.896;11.424;2023-04-03T08:44:25;0.90;99.90
12889;DHT22;56848;49.896;11.424;2023-04-03T08:47:11;0.80;99.90
12889;DHT22;56848;49.896;11.424;2023-04-03T08:49:52;1.30;99.90
12889;DHT22;56848;49.896;11.424;2023-04-03T08:52:23;1.10;99.90
12889;DHT22;56848;49.896;11.424;2023-04-03T08:54:54;1.30;99.90
12889;DHT22;56848;49.896;11.424;2023-04-03T08:57:39;1.20;99.90
12889;DHT22;56848;49.896;11.424;2023-04-03T09:02:53;1.60;99.90
12889;DHT22;56848;49.896;11.424;2023-04-03T09:08:27;2.30;99.90
12889;DHT22;56848;49.896;11.424;2023-04-03T09:14:00;2.10;99.90
12889;DHT22;56848;49.896;11.424;2023-04-03T09:21:38;2.10;99.90
12889;DHT22;56848;49.896;11.424;2023-04-03T09:24:07;2.20;99.90
12889;DHT22;56848;49.896;11.424;2023-04-03T09:26:38;2.00;99.90
12889;DHT22;56848;49.896;11.424;2023-04-03T09:29:07;2.40;99.90
12889;DHT22;56848;49.896;11.424;2023-04-03T09:31:38;2.60;99.90
12889;DHT22;56848;49.896;11.424;2023-04-03T09:34:22;2.50;99.90
12889;DHT22;56848;49.896;11.424;2023-04-03T09:36:53;2.30;99.90
12889;DHT22;56848;49.896;11.424;2023-04-03T09:39:28;2.20;99.90
12889;DHT22;56848;49.896;11.424;2023-04-03T09:42:19;2.20;99.90
12889;DHT22;56848;49.896;11.424;2023-04-03T09:44:55;2.00;99.90
12889;DHT22;56848;49.896;11.424;2023-04-03T09:47:28;2.00;99.90
12889;DHT22;56848;49.896;11.424;2023-04-03T09:52:38;3.00;99.90
12889;DHT22;56848;49.896;11.424;2023-04-03T09:55:16;2.90;99.90
12889;DHT22;56848;49.896;11.424;2023-04-03T09:57:42;2.70;99.90
12889;DHT22;56848;49.896;11.424;2023-04-03T10:00:27;2.60;99.90
12889;DHT22;56848;49.896;11.424;2023-04-03T10:02:57;2.70;99.90
12889;DHT22;56848;49.896;11.424;2023-04-03T10:05:49;2.70;99.90
12889;DHT22;56848;49.896;11.424;2023-04-03T10:08:26;2.30;99.90
12889;DHT22;56848;49.896;11.424;2023-04-03T10:11:15;2.30;99.90
12889;DHT22;56848;49.896;11.424;2023-04-03T10:13:55;1.70;99.90
12889;DHT22;56848;49.896;11.424;2023-04-03T10:16:41;1.90;99.90
12889;DHT22;56848;49.896;11.424;2023-04-03T10:19:33;2.50;99.90
12889;DHT22;56848;49.896;11.424;2023-04-03T10:22:13;2.90;99.90
12889;DHT22;56848;49.896;11.424;2023-04-03T10:25:17;2.80;99.90
12889;DHT22;56848;49.896;11.424;2023-04-03T10:28:00;2.90;99.90
12889;DHT22;56848;49.896;11.424;2023-04-03T10:35:53;2.90;99.90
12889;DHT22;56848;49.896;11.424;2023-04-03T10:38:37;3.00;99.90
12889;DHT22;56848;49.896;11.424;2023-04-03T10:46:38;2.70;99.90
12889;DHT22;56848;49.896;11.424;2023-04-03T10:49:17;2.90;99.90
12889;DHT22;56848;49.896;11.424;2023-04-03T10:51:51;3.10;99.90
12889;DHT22;56848;49.896;11.424;2023-04-03T10:54:25;3.10;99.90
12889;DHT22;56848;49.896;11.424;2023-04-03T10:57:03;3.20;99.90
12889;DHT22;56848;49.896;11.424;2023-04-03T10:59:33;3.70;99.90
12889;DHT22;56848;49.896;11.424;2023-04-03T11:04:34;3.30;99.90
12889;DHT22;56848;49.896;11.424;2023-04-03T11:07:18;3.20;99.90
12889;DHT22;56848;49.896;11.424;2023-04-03T11:09:50;3.70;99.90
12889;DHT22;56848;49.896;11.424;2023-04-03T11:12:38;3.60;99.90
12889;DHT22;56848;49.896;11.424;2023-04-03T11:15:15;3.50;99.90
12889;DHT22;56848;49.896;11.424;2023-04-03T11:17:48;3.50;99.90
12889;DHT22;56848;49.896;11.424;2023-04-03T11:20:22;3.40;99.90
12889;DHT22;56848;49.896;11.424;2023-04-03T11:23:03;3.90;99.90
12889;DHT22;56848;49.896;11.424;2023-04-03T11:25:33;4.10;99.90
12889;DHT22;56848;49.896;11.424;2023-04-03T11:28:02;3.50;99.50
12889;DHT22;56848;49.896;11.424;2023-04-03T11:35:47;4.20;99.90
12889;DHT22;56848;49.896;11.424;2023-04-03T11:38:30;4.50;99.90
12889;DHT22;56848;49.896;11.424;2023-04-03T11:41:00;4.40;99.90
12889;DHT22;56848;49.896;11.424;2023-04-03T11:43:28;3.90;98.60
12889;DHT22;56848;49.896;11.424;2023-04-03T11:46:03;4.20;99.90
12889;DHT22;56848;49.896;11.424;2023-04-03T11:51:00;4.20;99.90
12889;DHT22;56848;49.896;11.424;2023-04-03T11:53:40;4.50;99.90
12889;DHT22;56848;49.896;11.424;2023-04-03T11:56:32;4.70;99.90
12889;DHT22;56848;49.896;11.424;2023-04-03T12:04:13;4.10;99.50
12889;DHT22;56848;49.896;11.424;2023-04-03T12:06:59;4.30;99.90
12889;DHT22;56848;49.896;11.424;2023-04-03T12:11:53;4.00;99.10
12889;DHT22;56848;49.896;11.424;2023-04-03T12:14:22;4.20;99.70
12889;DHT22;56848;49.896;11.424;2023-04-03T12:16:49;4.30;98.70
12889;DHT22;56848;49.896;11.424;2023-04-03T12:19:37;4.80;99.90
12889;DHT22;56848;49.896;11.424;2023-04-03T12:22:09;4.20;98.90
12889;DHT22;56848;49.896;11.424;2023-04-03T12:24:43;4.40;98.60
12889;DHT22;56848;49.896;11.424;2023-04-03T12:27:17;4.60;98.70
12889;DHT22;56848;49.896;11.424;2023-04-03T12:32:46;4.70;99.90
12889;DHT22;56848;49.896;11.424;2023-04-03T12:35:43;4.60;99.90
12889;DHT22;56848;49.896;11.424;2023-04-03T12:41:17;4.60;99.40
12889;DHT22;56848;49.896;11.424;2023-04-03T12:43:48;4.90;99.70
12889;DHT22;56848;49.896;11.424;2023-04-03T12:46:21;4.60;97.50
12889;DHT22;56848;49.896;11.424;2023-04-03T12:54:01;5.00;99.00
12889;DHT22;56848;49.896;11.424;2023-04-03T12:56:30;4.60;98.40
12889;DHT22;56848;49.896;11.424;2023-04-03T12:59:18;4.40;99.40
12889;DHT22;56848;49.896;11.424;2023-04-03T13:01:44;4.60;99.20
12889;DHT22;56848;49.896;11.424;2023-04-03T13:04:18;4.60;98.70
12889;DHT22;56848;49.896;11.424;2023-04-03T13:06:44;4.80;99.10
12889;DHT22;56848;49.896;11.424;2023-04-03T13:09:25;5.00;99.90
12889;DHT22;56848;49.896;11.424;2023-04-03T13:12:13;5.20;99.90
12889;DHT22;56848;49.896;11.424;2023-04-03T13:14:39;5.10;99.90
12889;DHT22;56848;49.896;11.424;2023-04-03T13:17:16;4.60;99.10
12889;DHT22;56848;49.896;11.424;2023-04-03T13:19:43;4.20;97.60
12889;DHT22;56848;49.896;11.424;2023-04-03T13:22:29;4.90;99.50
12889;DHT22;56848;49.896;11.424;2023-04-03T13:24:59;5.10;99.80
12889;DHT22;56848;49.896;11.424;2023-04-03T13:27:27;5.20;99.90
12889;DHT22;56848;49.896;11.424;2023-04-03T13:29:58;4.80;99.90
12889;DHT22;56848;49.896;11.424;2023-04-03T13:32:26;4.60;98.70
12889;DHT22;56848;49.896;11.424;2023-04-03T13:34:53;5.00;99.20
12889;DHT22;56848;49.896;11.424;2023-04-03T13:37:38;4.80;97.70
12889;DHT22;56848;49.896;11.424;2023-04-03T13:42:35;5.10;99.40
12889;DHT22;56848;49.896;11.424;2023-04-03T13:45:23;5.10;98.90
12889;DHT22;56848;49.896;11.424;2023-04-03T13:47:52;4.40;97.90
12889;DHT22;56848;49.896;11.424;2023-04-03T13:52:53;4.30;98.30
12889;DHT22;56848;49.896;11.424;2023-04-03T14:02:54;4.40;96.00
12889;DHT22;56848;49.896;11.424;2023-04-03T14:05:22;4.50;96.80
12889;DHT22;56848;49.896;11.424;2023-04-03T14:07:50;5.00;97.80
12889;DHT22;56848;49.896;11.424;2023-04-03T14:10:16;4.90;98.60
12889;DHT22;56848;49.896;11.424;2023-04-03T14:12:42;5.00;99.90
12889;DHT22;56848;49.896;11.424;2023-04-03T14:15:18;5.10;97.90
12889;DHT22;56848;49.896;11.424;2023-04-03T14:17:44;4.60;97.70
12889;DHT22;56848;49.896;11.424;2023-04-03T14:20:20;4.20;98.10
12889;DHT22;56848;49.896;11.424;2023-04-03T14:22:47;4.40;97.40
12889;DHT22;56848;49.896;11.424;2023-04-03T14:25:15;4.30;96.20
12889;DHT22;56848;49.896;11.424;2023-04-03T14:27:47;4.40;96.10
12889;DHT22;56848;49.896;11.424;2023-04-03T14:30:18;4.50;98.30
12889;DHT22;56848;49.896;11.424;2023-04-03T14:32:45;4.70;98.20
12889;DHT22;56848;49.896;11.424;2023-04-03T14:35:12;4.70;96.50
12889;DHT22;56848;49.896;11.424;2023-04-03T14:37:38;4.30;98.20
12889;DHT22;56848;49.896;11.424;2023-04-03T14:40:05;4.20;98.10
12889;DHT22;56848;49.896;11.424;2023-04-03T14:42:36;4.50;97.70
12889;DHT22;56848;49.896;11.424;2023-04-03T14:45:04;4.70;99.50
12889;DHT22;56848;49.896;11.424;2023-04-03T14:47:31;4.70;99.40
12889;DHT22;56848;49.896;11.424;2023-04-03T14:49:59;4.90;98.10
12889;DHT22;56848;49.896;11.424;2023-04-03T14:52:28;4.70;97.40
12889;DHT22;56848;49.896;11.424;2023-04-03T14:54:55;4.50;96.60
12889;DHT22;56848;49.896;11.424;2023-04-03T14:57:24;4.60;99.00
12889;DHT22;56848;49.896;11.424;2023-04-03T14:59:50;4.80;98.00
12889;DHT22;56848;49.896;11.424;2023-04-03T15:02:33;4.80;99.30
12889;DHT22;56848;49.896;11.424;2023-04-03T15:05:01;4.30;98.50
12889;DHT22;56848;49.896;11.424;2023-04-03T15:07:30;4.00;99.90
12889;DHT22;56848;49.896;11.424;2023-04-03T15:09:56;4.20;99.00
12889;DHT22;56848;49.896;11.424;2023-04-03T15:12:24;4.10;97.40
12889;DHT22;56848;49.896;11.424;2023-04-03T15:14:50;4.40;98.80
12889;DHT22;56848;49.896;11.424;2023-04-03T15:17:18;4.40;98.30
12889;DHT22;56848;49.896;11.424;2023-04-03T15:19:45;4.10;95.80
12889;DHT22;56848;49.896;11.424;2023-04-03T15:22:16;3.80;96.20
12889;DHT22;56848;49.896;11.424;2023-04-03T15:24:43;4.10;97.90
12889;DHT22;56848;49.896;11.424;2023-04-03T15:27:10;4.50;98.70
12889;DHT22;56848;49.896;11.424;2023-04-03T15:29:36;4.60;98.00
12889;DHT22;56848;49.896;11.424;2023-04-03T15:32:02;4.70;99.90
12889;DHT22;56848;49.896;11.424;2023-04-03T15:34:28;4.70;99.90
12889;DHT22;56848;49.896;11.424;2023-04-03T15:36:54;4.30;99.90
12889;DHT22;56848;49.896;11.424;2023-04-03T15:39:20;3.40;98.80
12889;DHT22;56848;49.896;11.424;2023-04-03T15:41:46;3.70;98.50
12889;DHT22;56848;49.896;11.424;2023-04-03T15:44:12;4.50;97.00
12889;DHT22;56848;49.896;11.424;2023-04-03T15:46:38;4.50;96.30
12889;DHT22;56848;49.896;11.424;2023-04-03T15:49:04;4.70;98.30
12889;DHT22;56848;49.896;11.424;2023-04-03T15:51:31;4.30;96.10
12889;DHT22;56848;49.896;11.424;2023-04-03T15:53:56;4.10;98.40
12889;DHT22;56848;49.896;11.424;2023-04-03T15:56:22;4.20;99.50
12889;DHT22;56848;49.896;11.424;2023-04-03T15:58:48;3.90;97.60
12889;DHT22;56848;49.896;11.424;2023-04-03T16:01:13;3.70;97.80
12889;DHT22;56848;49.896;11.424;2023-04-03T16:03:41;3.30;97.70
12889;DHT22;56848;49.896;11.424;2023-04-03T16:06:11;3.30;98.60
12889;DHT22;56848;49.896;11.424;2023-04-03T16:08:37;3.30;98.40
12889;DHT22;56848;49.896;11.424;2023-04-03T16:11:03;3.80;98.30
12889;DHT22;56848;49.896;11.424;2023-04-03T16:13:28;4.00;96.70
12889;DHT22;56848;49.896;11.424;2023-04-03T16:15:54;3.60;96.90
12889;DHT22;56848;49.896;11.424;2023-04-03T16:18:20;3.70;96.60
12889;DHT22;56848;49.896;11.424;2023-04-03T16:20:46;3.80;96.70
12889;DHT22;56848;49.896;11.424;2023-04-03T16:23:11;3.40;95.60
12889;DHT22;56848;49.896;11.424;2023-04-03T16:25:37;3.60;96.60
12889;DHT22;56848;49.896;11.424;2023-04-03T16:28:03;3.60;97.90
12889;DHT22;56848;49.896;11.424;2023-04-03T16:30:29;2.90;97.60
12889;DHT22;56848;49.896;11.424;2023-04-03T16:32:56;2.60;97.70
12889;DHT22;56848;49.896;11.424;2023-04-03T16:35:22;2.40;97.50
12889;DHT22;56848;49.896;11.424;2023-04-03T16:37:48;2.40;98.60
12889;DHT22;56848;49.896;11.424;2023-04-03T16:40:14;2.40;98.40
12889;DHT22;56848;49.896;11.424;2023-04-03T16:42:40;2.50;97.50
12889;DHT22;56848;49.896;11.424;2023-04-03T16:45:06;2.50;98.00
12889;DHT22;56848;49.896;11.424;2023-04-03T16:47:32;2.50;99.60
12889;DHT22;56848;49.896;11.424;2023-04-03T16:49:57;2.30;97.50
12889;DHT22;56848;49.896;11.424;2023-04-03T16:52:23;2.20;98.70
12889;DHT22;56848;49.896;11.424;2023-04-03T16:54:49;2.10;97.90
12889;DHT22;56848;49.896;11.424;2023-04-03T16:57:14;2.00;99.50
12889;DHT22;56848;49.896;11.424;2023-04-03T16:59:40;1.80;98.90
12889;DHT22;56848;49.896;11.424;2023-04-03T17:02:06;1.70;98.40
12889;DHT22;56848;49.896;11.424;2023-04-03T17:04:32;1.70;99.20
12889;DHT22;56848;49.896;11.424;2023-04-03T17:06:58;1.60;98.50
12889;DHT22;56848;49.896;11.424;2023-04-03T17:09:25;1.60;99.20
12889;DHT22;56848;49.896;11.424;2023-04-03T17:11:50;1.50;98.90
12889;DHT22;56848;49.896;11.424;2023-04-03T17:14:16;1.50;98.40
12889;DHT22;56848;49.896;11.424;2023-04-03T17:16:42;1.50;98.30
12889;DHT22;56848;49.896;11.424;2023-04-03T17:19:07;1.50;98.70
12889;DHT22;56848;49.896;11.424;2023-04-03T17:21:33;1.40;98.10
12889;DHT22;56848;49.896;11.424;2023-04-03T17:24:02;1.40;99.90
12889;DHT22;56848;49.896;11.424;2023-04-03T17:26:28;1.40;99.00
12889;DHT22;56848;49.896;11.424;2023-04-03T17:28:55;1.40;99.90
12889;DHT22;56848;49.896;11.424;2023-04-03T17:31:22;1.40;99.80
12889;DHT22;56848;49.896;11.424;2023-04-03T17:33:47;1.40;99.50
12889;DHT22;56848;49.896;11.424;2023-04-03T17:36:13;1.50;99.70
12889;DHT22;56848;49.896;11.424;2023-04-03T17:38:38;1.50;99.50
12889;DHT22;56848;49.896;11.424;2023-04-03T17:41:06;1.50;99.90
12889;DHT22;56848;49.896;11.424;2023-04-03T17:43:33;1.50;99.90
12889;DHT22;56848;49.896;11.424;2023-04-03T17:46:00;1.50;99.40
12889;DHT22;56848;49.896;11.424;2023-04-03T17:48:29;1.50;99.60
12889;DHT22;56848;49.896;11.424;2023-04-03T17:50:55;1.40;99.90
12889;DHT22;56848;49.896;11.424;2023-04-03T17:53:20;1.30;98.50
12889;DHT22;56848;49.896;11.424;2023-04-03T17:55:46;1.30;99.30
12889;DHT22;56848;49.896;11.424;2023-04-03T17:58:11;1.20;99.00
12889;DHT22;56848;49.896;11.424;2023-04-03T18:00:37;1.20;99.80
12889;DHT22;56848;49.896;11.424;2023-04-03T18:03:03;1.20;99.60
12889;DHT22;56848;49.896;11.424;2023-04-03T18:05:29;1.20;99.70
12889;DHT22;56848;49.896;11.424;2023-04-03T18:07:56;1.20;98.30
12889;DHT22;56848;49.896;11.424;2023-04-03T18:10:22;1.20;98.70
12889;DHT22;56848;49.896;11.424;2023-04-03T18:12:48;1.20;98.70
12889;DHT22;56848;49.896;11.424;2023-04-03T18:15:13;1.20;99.30
12889;DHT22;56848;49.896;11.424;2023-04-03T18:17:39;1.20;99.00
12889;DHT22;56848;49.896;11.424;2023-04-03T18:20:05;1.20;99.10
12889;DHT22;56848;49.896;11.424;2023-04-03T18:22:31;1.20;99.70
12889;DHT22;56848;49.896;11.424;2023-04-03T18:24:57;1.20;98.90
12889;DHT22;56848;49.896;11.424;2023-04-03T18:27:25;1.20;99.70
12889;DHT22;56848;49.896;11.424;2023-04-03T18:29:54;1.20;99.90
12889;DHT22;56848;49.896;11.424;2023-04-03T18:32:20;1.10;99.90
12889;DHT22;56848;49.896;11.424;2023-04-03T18:34:46;1.10;99.90
12889;DHT22;56848;49.896;11.424;2023-04-03T18:37:12;1.10;99.90
12889;DHT22;56848;49.896;11.424;2023-04-03T18:39:37;1.10;99.90
12889;DHT22;56848;49.896;11.424;2023-04-03T18:42:15;1.10;99.90
12889;DHT22;56848;49.896;11.424;2023-04-03T18:44:43;1.10;99.70
12889;DHT22;56848;49.896;11.424;2023-04-03T18:47:10;1.10;99.90
12889;DHT22;56848;49.896;11.424;2023-04-03T18:49:38;1.10;99.90
12889;DHT22;56848;49.896;11.424;2023-04-03T18:52:04;1.10;99.90
